This is the latest recevied weather packets stored in our database for station/object HS2LXA-WX. If no packets are shown the sender has not sent any weather packets the latest 10 day(s).
| Time | Temp. | Humidity | Pressure | Rain* | Wind** | Luminosity | Snow |
|---|---|---|---|---|---|---|---|
| 1778209565 | 32.22° C | 78% | 1013.1 hPa | 0 mm | - | - | - |
| 1778208934 | 32.22° C | 80% | 1013.2 hPa | 0 mm | - | - | - |
| 1778208334 | 32.22° C | 78% | 1013.1 hPa | 0 mm | - | - | - |
| 1778207734 | 31.67° C | 79% | 1013.2 hPa | 0 mm | - | - | - |
| 1778207134 | 31.11° C | 82% | 1013.2 hPa | 0 mm | - | - | - |
| 1778206535 | 31.11° C | 83% | 1013.1 hPa | 0 mm | - | - | - |
| 1778205101 | 31.11° C | 85% | 1013.2 hPa | 0 mm | - | - | - |
| 1778204501 | 30.56° C | 86% | 1013.2 hPa | 0 mm | - | - | - |
| 1778203901 | 31.11° C | 85% | 1013.1 hPa | 0 mm | - | - | - |
| 1778203300 | 31.11° C | 84% | 1013.1 hPa | 0 mm | - | - | - |
| 1778202700 | 30.56° C | 86% | 1013.2 hPa | 0 mm | - | - | - |
| 1778202101 | 30° C | 86% | 1013.1 hPa | 0 mm | - | - | - |
| 1778201499 | 30° C | 86% | 1013.1 hPa | 0 mm | - | - | - |
| 1778200895 | 30° C | 87% | 1013.1 hPa | 0 mm | - | - | - |
| 1778200295 | 30.56° C | 85% | 1013.2 hPa | 0 mm | - | - | - |
| 1778199693 | 30° C | 85% | 1013.1 hPa | 0 mm | - | - | - |
| 1778199093 | 30° C | 86% | 1013.1 hPa | 0 mm | - | - | - |
| 1778198438 | 30° C | 85% | 1013.1 hPa | 0 mm | - | - | - |
| 1778197275 | 30.56° C | 83% | 1013.1 hPa | 0 mm | - | - | - |
| 1778196675 | 30° C | 85% | 1013.1 hPa | 0 mm | - | - | - |
| 1778196074 | 30° C | 84% | 1013.1 hPa | 0 mm | - | - | - |
| 1778195474 | 29.44° C | 86% | 1013.1 hPa | 0 mm | - | - | - |
| 1778194874 | 30° C | 84% | 1013.2 hPa | 0 mm | - | - | - |
| 1778194269 | 30° C | 82% | 1013.2 hPa | 0 mm | - | - | - |
| 1778192876 | 30.56° C | 82% | 1013.2 hPa | 0 mm | - | - | - |
* Rain latest hour (hover to see other rain measurements)
** Current wind speed in m/s (hover to see current wind gust speed)